sensor_id;sensor_type;location;lat;lon;timestamp;pressure;altitude;pressure_sealevel;temperature;humidity
7335;BME280;3708;42.632;23.378;2022-10-16T00:01:30;94939.06;;;13.86;55.37
7335;BME280;3708;42.632;23.378;2022-10-16T00:03:59;94939.50;;;13.88;55.12
7335;BME280;3708;42.632;23.378;2022-10-16T00:06:27;94941.28;;;13.96;54.94
7335;BME280;3708;42.632;23.378;2022-10-16T00:08:54;94945.47;;;13.56;55.93
7335;BME280;3708;42.632;23.378;2022-10-16T00:11:23;94947.50;;;13.50;56.40
7335;BME280;3708;42.632;23.378;2022-10-16T00:13:52;94951.84;;;13.75;55.72
7335;BME280;3708;42.632;23.378;2022-10-16T00:16:21;94946.94;;;13.86;55.55
7335;BME280;3708;42.632;23.378;2022-10-16T00:18:48;94942.72;;;13.73;55.38
7335;BME280;3708;42.632;23.378;2022-10-16T00:21:18;94944.44;;;13.90;55.31
7335;BME280;3708;42.632;23.378;2022-10-16T00:23:45;94947.50;;;13.50;55.90
7335;BME280;3708;42.632;23.378;2022-10-16T00:26:15;94954.00;;;13.24;56.67
7335;BME280;3708;42.632;23.378;2022-10-16T00:28:42;94952.13;;;13.53;56.20
7335;BME280;3708;42.632;23.378;2022-10-16T00:31:12;94961.44;;;13.71;55.97
7335;BME280;3708;42.632;23.378;2022-10-16T00:33:40;94956.16;;;13.80;55.41
7335;BME280;3708;42.632;23.378;2022-10-16T00:36:08;94965.84;;;13.88;55.37
7335;BME280;3708;42.632;23.378;2022-10-16T00:38:37;94968.75;;;13.95;55.30
7335;BME280;3708;42.632;23.378;2022-10-16T00:41:04;94967.75;;;14.00;54.80
7335;BME280;3708;42.632;23.378;2022-10-16T00:43:37;94967.56;;;13.84;54.46
7335;BME280;3708;42.632;23.378;2022-10-16T00:46:10;94969.53;;;13.66;53.23
7335;BME280;3708;42.632;23.378;2022-10-16T00:48:39;94968.25;;;13.52;52.98
7335;BME280;3708;42.632;23.378;2022-10-16T00:51:07;94965.00;;;13.46;53.50
7335;BME280;3708;42.632;23.378;2022-10-16T00:53:36;94963.66;;;13.40;54.13
7335;BME280;3708;42.632;23.378;2022-10-16T00:56:04;94959.94;;;13.41;54.38
7335;BME280;3708;42.632;23.378;2022-10-16T00:58:31;94963.22;;;13.38;55.58
7335;BME280;3708;42.632;23.378;2022-10-16T01:00:58;94964.22;;;13.25;55.51
7335;BME280;3708;42.632;23.378;2022-10-16T01:03:27;94971.56;;;13.40;55.41
7335;BME280;3708;42.632;23.378;2022-10-16T01:06:05;94972.59;;;13.48;55.11
7335;BME280;3708;42.632;23.378;2022-10-16T01:08:50;94969.44;;;13.54;54.80
7335;BME280;3708;42.632;23.378;2022-10-16T01:11:27;94976.44;;;13.50;54.65
7335;BME280;3708;42.632;23.378;2022-10-16T01:14:00;94976.16;;;13.52;54.36
7335;BME280;3708;42.632;23.378;2022-10-16T01:16:34;94979.91;;;13.42;54.19
7335;BME280;3708;42.632;23.378;2022-10-16T01:19:09;94973.13;;;13.33;54.37
7335;BME280;3708;42.632;23.378;2022-10-16T01:21:41;94967.88;;;13.33;54.32
7335;BME280;3708;42.632;23.378;2022-10-16T01:24:17;94972.50;;;13.36;54.07
7335;BME280;3708;42.632;23.378;2022-10-16T01:27:03;94969.16;;;13.27;53.79
7335;BME280;3708;42.632;23.378;2022-10-16T01:29:35;94968.13;;;13.19;54.11
7335;BME280;3708;42.632;23.378;2022-10-16T01:32:10;94958.59;;;12.97;54.49
7335;BME280;3708;42.632;23.378;2022-10-16T01:34:43;94965.81;;;13.00;54.32
7335;BME280;3708;42.632;23.378;2022-10-16T01:37:15;94960.53;;;12.71;54.69
7335;BME280;3708;42.632;23.378;2022-10-16T01:39:45;94956.22;;;12.58;54.92
7335;BME280;3708;42.632;23.378;2022-10-16T01:42:19;94949.91;;;12.59;55.10
7335;BME280;3708;42.632;23.378;2022-10-16T01:44:47;94952.69;;;12.54;54.69
7335;BME280;3708;42.632;23.378;2022-10-16T01:47:15;94957.03;;;12.50;55.08
7335;BME280;3708;42.632;23.378;2022-10-16T01:49:44;94959.50;;;12.38;55.21
7335;BME280;3708;42.632;23.378;2022-10-16T01:52:15;94970.97;;;12.08;56.00
7335;BME280;3708;42.632;23.378;2022-10-16T01:54:46;94966.50;;;12.17;55.58
7335;BME280;3708;42.632;23.378;2022-10-16T01:57:16;94968.97;;;12.22;55.49
7335;BME280;3708;42.632;23.378;2022-10-16T01:59:47;94964.50;;;12.14;55.50
7335;BME280;3708;42.632;23.378;2022-10-16T02:02:17;94973.13;;;11.72;56.46
7335;BME280;3708;42.632;23.378;2022-10-16T02:04:48;94965.66;;;11.57;56.85
7335;BME280;3708;42.632;23.378;2022-10-16T02:07:16;94967.84;;;11.55;57.34
7335;BME280;3708;42.632;23.378;2022-10-16T02:09:43;94970.75;;;11.44;57.96
7335;BME280;3708;42.632;23.378;2022-10-16T02:12:18;94974.91;;;11.45;58.07
7335;BME280;3708;42.632;23.378;2022-10-16T02:14:46;94977.25;;;11.56;57.72
7335;BME280;3708;42.632;23.378;2022-10-16T02:17:14;94976.00;;;11.44;57.83
7335;BME280;3708;42.632;23.378;2022-10-16T02:19:42;94983.13;;;11.61;57.71
7335;BME280;3708;42.632;23.378;2022-10-16T02:22:15;94982.50;;;11.56;57.90
7335;BME280;3708;42.632;23.378;2022-10-16T02:24:47;94992.69;;;11.57;58.00
7335;BME280;3708;42.632;23.378;2022-10-16T02:27:22;94988.41;;;11.70;57.82
7335;BME280;3708;42.632;23.378;2022-10-16T02:29:55;94992.44;;;11.76;57.84
7335;BME280;3708;42.632;23.378;2022-10-16T02:32:30;94990.69;;;11.63;57.81
7335;BME280;3708;42.632;23.378;2022-10-16T02:34:58;94995.69;;;11.73;57.69
7335;BME280;3708;42.632;23.378;2022-10-16T02:37:27;94994.66;;;11.51;58.00
7335;BME280;3708;42.632;23.378;2022-10-16T02:39:56;94989.41;;;11.51;58.00
7335;BME280;3708;42.632;23.378;2022-10-16T02:42:29;94984.47;;;11.50;58.23
7335;BME280;3708;42.632;23.378;2022-10-16T02:44:59;94998.69;;;11.40;58.15
7335;BME280;3708;42.632;23.378;2022-10-16T02:47:26;94994.88;;;11.16;58.76
7335;BME280;3708;42.632;23.378;2022-10-16T02:49:53;94990.47;;;11.33;58.42
7335;BME280;3708;42.632;23.378;2022-10-16T02:52:20;94999.31;;;11.55;57.76
7335;BME280;3708;42.632;23.378;2022-10-16T02:54:47;94996.38;;;11.56;57.64
7335;BME280;3708;42.632;23.378;2022-10-16T02:57:14;94994.84;;;11.55;57.61
7335;BME280;3708;42.632;23.378;2022-10-16T02:59:42;95004.22;;;11.47;57.65
7335;BME280;3708;42.632;23.378;2022-10-16T03:02:09;95011.19;;;11.52;58.03
7335;BME280;3708;42.632;23.378;2022-10-16T03:04:37;95011.50;;;11.50;58.16
7335;BME280;3708;42.632;23.378;2022-10-16T03:07:04;95014.13;;;11.50;58.03
7335;BME280;3708;42.632;23.378;2022-10-16T03:09:31;95011.59;;;11.37;58.13
7335;BME280;3708;42.632;23.378;2022-10-16T03:11:58;95011.44;;;11.25;58.90
7335;BME280;3708;42.632;23.378;2022-10-16T03:14:25;95015.47;;;11.39;58.58
7335;BME280;3708;42.632;23.378;2022-10-16T03:16:53;95018.56;;;11.41;58.63
7335;BME280;3708;42.632;23.378;2022-10-16T03:19:20;95022.31;;;11.49;58.71
7335;BME280;3708;42.632;23.378;2022-10-16T03:21:47;95021.91;;;11.25;58.70
7335;BME280;3708;42.632;23.378;2022-10-16T03:24:14;95026.50;;;11.19;58.91
7335;BME280;3708;42.632;23.378;2022-10-16T03:26:41;95026.41;;;11.33;58.90
7335;BME280;3708;42.632;23.378;2022-10-16T03:29:08;95028.88;;;11.29;59.23
7335;BME280;3708;42.632;23.378;2022-10-16T03:31:35;95027.31;;;11.28;59.18
7335;BME280;3708;42.632;23.378;2022-10-16T03:34:03;95022.88;;;11.37;59.26
7335;BME280;3708;42.632;23.378;2022-10-16T03:36:30;95022.00;;;11.50;59.13
7335;BME280;3708;42.632;23.378;2022-10-16T03:38:57;95023.31;;;11.31;59.25
7335;BME280;3708;42.632;23.378;2022-10-16T03:41:24;95033.19;;;11.25;59.34
7335;BME280;3708;42.632;23.378;2022-10-16T03:43:51;95027.59;;;11.18;59.14
7335;BME280;3708;42.632;23.378;2022-10-16T03:46:18;95032.72;;;11.23;58.96
7335;BME280;3708;42.632;23.378;2022-10-16T03:48:45;95024.16;;;11.09;59.14
7335;BME280;3708;42.632;23.378;2022-10-16T03:51:13;95024.50;;;11.16;59.30
7335;BME280;3708;42.632;23.378;2022-10-16T03:53:40;95023.25;;;11.14;58.80
7335;BME280;3708;42.632;23.378;2022-10-16T03:56:07;95012.50;;;11.24;58.73
7335;BME280;3708;42.632;23.378;2022-10-16T03:58:34;95027.03;;;11.30;58.67
7335;BME280;3708;42.632;23.378;2022-10-16T04:01:01;95022.09;;;11.37;58.55
7335;BME280;3708;42.632;23.378;2022-10-16T04:03:28;95018.22;;;11.34;58.74
7335;BME280;3708;42.632;23.378;2022-10-16T04:05:54;95016.03;;;11.28;59.49
7335;BME280;3708;42.632;23.378;2022-10-16T04:08:23;95018.16;;;11.17;59.38
7335;BME280;3708;42.632;23.378;2022-10-16T04:10:50;95024.50;;;11.16;59.41
7335;BME280;3708;42.632;23.378;2022-10-16T04:13:17;95022.94;;;11.15;59.60
7335;BME280;3708;42.632;23.378;2022-10-16T04:15:44;95026.19;;;11.12;59.04
7335;BME280;3708;42.632;23.378;2022-10-16T04:18:11;95022.03;;;11.20;59.27
7335;BME280;3708;42.632;23.378;2022-10-16T04:20:38;95016.03;;;11.19;59.30
7335;BME280;3708;42.632;23.378;2022-10-16T04:23:05;95019.38;;;10.81;59.74
7335;BME280;3708;42.632;23.378;2022-10-16T04:25:34;95022.31;;;10.79;60.58
7335;BME280;3708;42.632;23.378;2022-10-16T04:28:00;95024.72;;;10.98;60.01
7335;BME280;3708;42.632;23.378;2022-10-16T04:30:27;95023.88;;;10.80;59.97
7335;BME280;3708;42.632;23.378;2022-10-16T04:32:54;95027.19;;;10.94;59.91
7335;BME280;3708;42.632;23.378;2022-10-16T04:35:21;95022.88;;;10.98;59.60
7335;BME280;3708;42.632;23.378;2022-10-16T04:37:48;95031.75;;;10.80;59.27
7335;BME280;3708;42.632;23.378;2022-10-16T04:40:16;95036.47;;;10.69;59.41
7335;BME280;3708;42.632;23.378;2022-10-16T04:42:44;95040.25;;;10.63;59.71
7335;BME280;3708;42.632;23.378;2022-10-16T04:45:11;95035.69;;;10.69;59.62
7335;BME280;3708;42.632;23.378;2022-10-16T04:47:38;95041.72;;;10.69;59.45
7335;BME280;3708;42.632;23.378;2022-10-16T04:50:06;95049.78;;;10.82;59.43
7335;BME280;3708;42.632;23.378;2022-10-16T04:52:33;95043.94;;;10.85;59.21
7335;BME280;3708;42.632;23.378;2022-10-16T04:55:00;95041.97;;;10.90;58.96
7335;BME280;3708;42.632;23.378;2022-10-16T04:57:28;95051.03;;;10.62;59.16
7335;BME280;3708;42.632;23.378;2022-10-16T04:59:57;95057.13;;;10.71;59.48
7335;BME280;3708;42.632;23.378;2022-10-16T05:02:23;95063.84;;;10.63;59.62
7335;BME280;3708;42.632;23.378;2022-10-16T05:04:51;95066.06;;;10.48;59.87
7335;BME280;3708;42.632;23.378;2022-10-16T05:07:18;95064.75;;;10.37;60.15
7335;BME280;3708;42.632;23.378;2022-10-16T05:09:45;95066.34;;;10.24;60.80
7335;BME280;3708;42.632;23.378;2022-10-16T05:12:12;95067.13;;;10.69;60.78
7335;BME280;3708;42.632;23.378;2022-10-16T05:14:39;95069.22;;;11.11;59.33
7335;BME280;3708;42.632;23.378;2022-10-16T05:17:07;95070.66;;;11.26;58.61
7335;BME280;3708;42.632;23.378;2022-10-16T05:19:34;95070.72;;;11.04;58.59
7335;BME280;3708;42.632;23.378;2022-10-16T05:22:01;95074.28;;;11.08;58.51
7335;BME280;3708;42.632;23.378;2022-10-16T05:24:28;95076.78;;;10.82;58.36
7335;BME280;3708;42.632;23.378;2022-10-16T05:26:55;95083.44;;;10.66;59.02
7335;BME280;3708;42.632;23.378;2022-10-16T05:29:22;95080.28;;;10.55;59.55
7335;BME280;3708;42.632;23.378;2022-10-16T05:31:50;95075.94;;;10.73;59.50
7335;BME280;3708;42.632;23.378;2022-10-16T05:34:19;95079.84;;;10.84;59.23
7335;BME280;3708;42.632;23.378;2022-10-16T05:36:46;95085.56;;;10.86;58.96
7335;BME280;3708;42.632;23.378;2022-10-16T05:39:14;95079.25;;;10.87;59.19
7335;BME280;3708;42.632;23.378;2022-10-16T05:41:41;95073.94;;;11.01;59.56
7335;BME280;3708;42.632;23.378;2022-10-16T05:44:08;95078.59;;;11.04;59.52
7335;BME280;3708;42.632;23.378;2022-10-16T05:46:35;95077.53;;;11.13;59.28
7335;BME280;3708;42.632;23.378;2022-10-16T05:49:03;95091.50;;;11.31;58.88
7335;BME280;3708;42.632;23.378;2022-10-16T05:51:31;95082.94;;;11.47;58.71
7335;BME280;3708;42.632;23.378;2022-10-16T05:53:58;95090.59;;;11.35;58.48
7335;BME280;3708;42.632;23.378;2022-10-16T05:56:25;95094.38;;;11.51;58.27
7335;BME280;3708;42.632;23.378;2022-10-16T05:58:52;95097.38;;;11.67;57.82
7335;BME280;3708;42.632;23.378;2022-10-16T06:01:19;95102.44;;;11.64;57.79
7335;BME280;3708;42.632;23.378;2022-10-16T06:03:49;95103.22;;;11.64;57.81
7335;BME280;3708;42.632;23.378;2022-10-16T06:06:18;95114.69;;;11.68;57.79
7335;BME280;3708;42.632;23.378;2022-10-16T06:08:48;95108.13;;;11.88;57.55
7335;BME280;3708;42.632;23.378;2022-10-16T06:11:16;95115.41;;;12.16;57.63
7335;BME280;3708;42.632;23.378;2022-10-16T06:13:43;95116.69;;;12.27;57.19
7335;BME280;3708;42.632;23.378;2022-10-16T06:16:12;95122.09;;;12.31;56.45
7335;BME280;3708;42.632;23.378;2022-10-16T06:18:39;95121.34;;;12.39;56.38
7335;BME280;3708;42.632;23.378;2022-10-16T06:21:10;95118.38;;;12.66;56.60
7335;BME280;3708;42.632;23.378;2022-10-16T06:23:37;95132.28;;;12.92;56.33
7335;BME280;3708;42.632;23.378;2022-10-16T06:26:06;95134.59;;;13.11;55.85
7335;BME280;3708;42.632;23.378;2022-10-16T06:28:34;95139.09;;;13.28;55.14
7335;BME280;3708;42.632;23.378;2022-10-16T06:31:01;95137.66;;;13.47;54.69
7335;BME280;3708;42.632;23.378;2022-10-16T06:33:28;95139.94;;;13.49;53.83
7335;BME280;3708;42.632;23.378;2022-10-16T06:36:00;95139.34;;;13.52;53.68
7335;BME280;3708;42.632;23.378;2022-10-16T06:38:27;95144.41;;;13.57;53.83
7335;BME280;3708;42.632;23.378;2022-10-16T06:40:54;95144.38;;;13.65;53.50
7335;BME280;3708;42.632;23.378;2022-10-16T06:43:23;95139.66;;;13.88;53.37
7335;BME280;3708;42.632;23.378;2022-10-16T06:45:52;95151.25;;;13.87;52.85
7335;BME280;3708;42.632;23.378;2022-10-16T06:48:20;95151.34;;;14.08;52.56
7335;BME280;3708;42.632;23.378;2022-10-16T06:50:56;95149.44;;;14.08;52.20
7335;BME280;3708;42.632;23.378;2022-10-16T06:53:23;95157.63;;;14.15;51.84
7335;BME280;3708;42.632;23.378;2022-10-16T06:55:50;95159.25;;;14.37;51.65
7335;BME280;3708;42.632;23.378;2022-10-16T06:58:17;95164.91;;;14.47;51.43
7335;BME280;3708;42.632;23.378;2022-10-16T07:00:46;95169.94;;;14.61;51.54
7335;BME280;3708;42.632;23.378;2022-10-16T07:03:13;95174.97;;;14.75;51.32
7335;BME280;3708;42.632;23.378;2022-10-16T07:05:42;95170.59;;;14.79;51.76
7335;BME280;3708;42.632;23.378;2022-10-16T07:08:09;95166.94;;;14.92;51.15
7335;BME280;3708;42.632;23.378;2022-10-16T07:10:37;95165.03;;;15.13;51.16
7335;BME280;3708;42.632;23.378;2022-10-16T07:13:04;95172.94;;;15.13;50.80
7335;BME280;3708;42.632;23.378;2022-10-16T07:15:33;95175.41;;;15.18;50.40
7335;BME280;3708;42.632;23.378;2022-10-16T07:18:02;95175.84;;;15.20;50.45
7335;BME280;3708;42.632;23.378;2022-10-16T07:20:29;95172.84;;;14.89;50.62
7335;BME280;3708;42.632;23.378;2022-10-16T07:23:00;95173.16;;;14.87;50.85
7335;BME280;3708;42.632;23.378;2022-10-16T07:25:28;95184.34;;;15.05;50.66
7335;BME280;3708;42.632;23.378;2022-10-16T07:27:55;95177.69;;;15.19;50.46
7335;BME280;3708;42.632;23.378;2022-10-16T07:30:23;95175.47;;;15.42;50.01
7335;BME280;3708;42.632;23.378;2022-10-16T07:32:53;95176.31;;;15.55;49.49
7335;BME280;3708;42.632;23.378;2022-10-16T07:35:24;95179.59;;;15.52;49.68
7335;BME280;3708;42.632;23.378;2022-10-16T07:37:51;95185.25;;;15.74;49.35
7335;BME280;3708;42.632;23.378;2022-10-16T07:40:18;95184.94;;;15.88;48.85
7335;BME280;3708;42.632;23.378;2022-10-16T07:42:45;95178.03;;;16.08;48.22
7335;BME280;3708;42.632;23.378;2022-10-16T07:45:12;95180.09;;;16.26;48.13
7335;BME280;3708;42.632;23.378;2022-10-16T07:47:39;95183.75;;;16.34;47.15
7335;BME280;3708;42.632;23.378;2022-10-16T07:50:06;95190.25;;;16.00;47.76
7335;BME280;3708;42.632;23.378;2022-10-16T07:52:35;95186.38;;;16.22;47.96
7335;BME280;3708;42.632;23.378;2022-10-16T07:55:02;95183.72;;;16.46;47.52
7335;BME280;3708;42.632;23.378;2022-10-16T07:57:29;95189.03;;;16.46;48.06
7335;BME280;3708;42.632;23.378;2022-10-16T07:59:56;95187.03;;;16.79;47.32
7335;BME280;3708;42.632;23.378;2022-10-16T08:02:23;95188.25;;;16.69;46.58
7335;BME280;3708;42.632;23.378;2022-10-16T08:04:50;95193.22;;;16.35;46.88
7335;BME280;3708;42.632;23.378;2022-10-16T08:07:20;95191.22;;;16.44;47.55
7335;BME280;3708;42.632;23.378;2022-10-16T08:09:50;95196.53;;;16.68;46.98
7335;BME280;3708;42.632;23.378;2022-10-16T08:12:18;95187.41;;;17.05;46.49
7335;BME280;3708;42.632;23.378;2022-10-16T08:14:44;95194.34;;;17.10;45.53
7335;BME280;3708;42.632;23.378;2022-10-16T08:17:13;95191.75;;;17.41;45.71
7335;BME280;3708;42.632;23.378;2022-10-16T08:19:44;95177.22;;;17.63;45.16
7335;BME280;3708;42.632;23.378;2022-10-16T08:22:11;95178.78;;;17.64;44.86
7335;BME280;3708;42.632;23.378;2022-10-16T08:24:37;95180.25;;;17.77;43.69
7335;BME280;3708;42.632;23.378;2022-10-16T08:27:06;95181.75;;;17.62;44.48
7335;BME280;3708;42.632;23.378;2022-10-16T08:29:34;95179.00;;;17.59;44.04
7335;BME280;3708;42.632;23.378;2022-10-16T08:32:01;95177.91;;;17.60;44.00
7335;BME280;3708;42.632;23.378;2022-10-16T08:34:30;95181.69;;;17.74;44.60
7335;BME280;3708;42.632;23.378;2022-10-16T08:36:57;95177.41;;;18.01;43.25
7335;BME280;3708;42.632;23.378;2022-10-16T08:39:23;95185.78;;;18.34;42.97
7335;BME280;3708;42.632;23.378;2022-10-16T08:42:18;95183.22;;;18.53;42.40
7335;BME280;3708;42.632;23.378;2022-10-16T08:45:06;95178.41;;;18.43;42.06
7335;BME280;3708;42.632;23.378;2022-10-16T08:47:45;95183.38;;;18.60;41.05
7335;BME280;3708;42.632;23.378;2022-10-16T08:50:22;95190.00;;;18.19;41.13
7335;BME280;3708;42.632;23.378;2022-10-16T08:52:50;95187.06;;;18.40;40.59
7335;BME280;3708;42.632;23.378;2022-10-16T08:55:28;95188.72;;;18.45;41.78
7335;BME280;3708;42.632;23.378;2022-10-16T08:57:59;95183.56;;;18.36;39.61
7335;BME280;3708;42.632;23.378;2022-10-16T09:00:27;95191.25;;;18.57;39.55
7335;BME280;3708;42.632;23.378;2022-10-16T09:03:02;95195.09;;;18.94;39.02
7335;BME280;3708;42.632;23.378;2022-10-16T09:05:56;95191.13;;;19.03;38.81
7335;BME280;3708;42.632;23.378;2022-10-16T09:08:32;95189.78;;;19.13;36.61
7335;BME280;3708;42.632;23.378;2022-10-16T09:11:10;95190.84;;;19.28;36.97
7335;BME280;3708;42.632;23.378;2022-10-16T09:13:49;95187.91;;;18.94;36.80
7335;BME280;3708;42.632;23.378;2022-10-16T09:16:20;95188.53;;;18.88;38.02
7335;BME280;3708;42.632;23.378;2022-10-16T09:18:56;95187.06;;;19.29;37.35
7335;BME280;3708;42.632;23.378;2022-10-16T09:21:27;95187.13;;;18.94;37.77
7335;BME280;3708;42.632;23.378;2022-10-16T09:23:58;95189.50;;;19.18;38.33
7335;BME280;3708;42.632;23.378;2022-10-16T09:26:26;95187.63;;;19.57;37.05
7335;BME280;3708;42.632;23.378;2022-10-16T09:28:55;95181.25;;;19.84;35.71
7335;BME280;3708;42.632;23.378;2022-10-16T09:31:23;95193.38;;;19.21;36.31
7335;BME280;3708;42.632;23.378;2022-10-16T09:33:53;95188.28;;;18.77;37.15
7335;BME280;3708;42.632;23.378;2022-10-16T09:36:23;95182.13;;;19.27;36.75
7335;BME280;3708;42.632;23.378;2022-10-16T09:39:03;95182.81;;;19.43;35.40
7335;BME280;3708;42.632;23.378;2022-10-16T09:41:31;95182.28;;;19.76;35.36
7335;BME280;3708;42.632;23.378;2022-10-16T09:44:03;95180.09;;;19.21;35.73
7335;BME280;3708;42.632;23.378;2022-10-16T09:46:36;95178.69;;;19.46;35.64
7335;BME280;3708;42.632;23.378;2022-10-16T09:49:20;95171.09;;;19.67;35.07
7335;BME280;3708;42.632;23.378;2022-10-16T09:51:47;95181.31;;;19.65;35.75
7335;BME280;3708;42.632;23.378;2022-10-16T09:54:17;95174.06;;;19.62;35.31
7335;BME280;3708;42.632;23.378;2022-10-16T09:56:44;95173.09;;;19.32;34.81
7335;BME280;3708;42.632;23.378;2022-10-16T09:59:17;95175.16;;;19.61;35.40
7335;BME280;3708;42.632;23.378;2022-10-16T10:01:46;95169.47;;;20.27;35.28
7335;BME280;3708;42.632;23.378;2022-10-16T10:04:13;95166.63;;;19.94;34.68
7335;BME280;3708;42.632;23.378;2022-10-16T10:06:43;95174.84;;;20.30;34.73
7335;BME280;3708;42.632;23.378;2022-10-16T10:09:18;95158.22;;;20.93;33.62
7335;BME280;3708;42.632;23.378;2022-10-16T10:11:51;95158.56;;;21.17;33.30
7335;BME280;3708;42.632;23.378;2022-10-16T10:14:23;95155.81;;;21.10;33.42
7335;BME280;3708;42.632;23.378;2022-10-16T10:16:51;95157.31;;;21.41;33.47
7335;BME280;3708;42.632;23.378;2022-10-16T10:19:20;95151.88;;;21.71;32.88
7335;BME280;3708;42.632;23.378;2022-10-16T10:21:48;95157.44;;;21.92;31.72
7335;BME280;3708;42.632;23.378;2022-10-16T10:24:17;95153.59;;;21.89;32.07
7335;BME280;3708;42.632;23.378;2022-10-16T10:26:59;95155.81;;;22.28;31.46
7335;BME280;3708;42.632;23.378;2022-10-16T10:29:42;95147.06;;;22.31;30.92
7335;BME280;3708;42.632;23.378;2022-10-16T10:32:21;95156.09;;;22.16;30.88
7335;BME280;3708;42.632;23.378;2022-10-16T10:35:02;95153.28;;;21.98;31.05
7335;BME280;3708;42.632;23.378;2022-10-16T10:37:49;95148.13;;;21.75;31.12
7335;BME280;3708;42.632;23.378;2022-10-16T10:40:28;95150.31;;;21.00;31.85
7335;BME280;3708;42.632;23.378;2022-10-16T10:43:01;95141.34;;;20.82;32.21
7335;BME280;3708;42.632;23.378;2022-10-16T10:45:39;95152.75;;;20.26;32.91
7335;BME280;3708;42.632;23.378;2022-10-16T10:48:21;95130.78;;;20.89;32.82
7335;BME280;3708;42.632;23.378;2022-10-16T10:50:56;95135.72;;;21.53;31.75
7335;BME280;3708;42.632;23.378;2022-10-16T10:53:37;95133.63;;;21.76;30.95
7335;BME280;3708;42.632;23.378;2022-10-16T10:56:16;95128.09;;;21.95;30.48
7335;BME280;3708;42.632;23.378;2022-10-16T10:59:06;95124.34;;;22.58;28.59
7335;BME280;3708;42.632;23.378;2022-10-16T11:01:44;95126.34;;;22.14;29.22
7335;BME280;3708;42.632;23.378;2022-10-16T11:04:32;95129.19;;;23.07;28.85
7335;BME280;3708;42.632;23.378;2022-10-16T11:07:04;95120.63;;;23.70;27.13
7335;BME280;3708;42.632;23.378;2022-10-16T11:09:34;95124.44;;;23.90;27.51
7335;BME280;3708;42.632;23.378;2022-10-16T11:12:06;95121.41;;;24.27;25.65
7335;BME280;3708;42.632;23.378;2022-10-16T11:14:41;95114.47;;;24.54;25.24
7335;BME280;3708;42.632;23.378;2022-10-16T11:17:13;95111.78;;;24.57;24.43
7335;BME280;3708;42.632;23.378;2022-10-16T11:19:46;95112.56;;;24.65;24.31
7335;BME280;3708;42.632;23.378;2022-10-16T11:22:19;95114.88;;;24.24;24.15
7335;BME280;3708;42.632;23.378;2022-10-16T11:24:50;95120.59;;;24.54;24.16
7335;BME280;3708;42.632;23.378;2022-10-16T11:27:24;95117.97;;;24.26;23.89
7335;BME280;3708;42.632;23.378;2022-10-16T11:29:57;95101.88;;;24.47;24.31
7335;BME280;3708;42.632;23.378;2022-10-16T11:32:29;95106.41;;;24.82;24.59
7335;BME280;3708;42.632;23.378;2022-10-16T11:35:02;95107.09;;;25.04;23.07
7335;BME280;3708;42.632;23.378;2022-10-16T11:37:39;95108.03;;;25.41;22.67
7335;BME280;3708;42.632;23.378;2022-10-16T11:40:22;95107.31;;;25.92;22.25
7335;BME280;3708;42.632;23.378;2022-10-16T11:42:54;95102.47;;;26.28;21.95
7335;BME280;3708;42.632;23.378;2022-10-16T11:45:29;95100.94;;;26.64;21.95
7335;BME280;3708;42.632;23.378;2022-10-16T11:48:07;95098.38;;;26.91;22.74
7335;BME280;3708;42.632;23.378;2022-10-16T11:50:39;95110.38;;;26.83;22.00
7335;BME280;3708;42.632;23.378;2022-10-16T11:53:14;95107.56;;;26.56;22.02
7335;BME280;3708;42.632;23.378;2022-10-16T11:55:44;95111.75;;;25.65;22.44
7335;BME280;3708;42.632;23.378;2022-10-16T11:58:18;95104.88;;;26.15;22.50
7335;BME280;3708;42.632;23.378;2022-10-16T12:00:55;95101.97;;;25.92;23.27
7335;BME280;3708;42.632;23.378;2022-10-16T12:03:28;95105.28;;;25.59;23.75
7335;BME280;3708;42.632;23.378;2022-10-16T12:06:10;95103.25;;;25.73;23.56
7335;BME280;3708;42.632;23.378;2022-10-16T12:08:39;95094.22;;;26.05;23.20
7335;BME280;3708;42.632;23.378;2022-10-16T12:11:09;95092.56;;;26.59;22.42
7335;BME280;3708;42.632;23.378;2022-10-16T12:13:38;95097.97;;;26.92;22.07
7335;BME280;3708;42.632;23.378;2022-10-16T12:16:21;95099.81;;;27.29;23.51
7335;BME280;3708;42.632;23.378;2022-10-16T12:19:08;95097.91;;;27.60;21.83
7335;BME280;3708;42.632;23.378;2022-10-16T12:21:36;95104.94;;;27.50;21.70
7335;BME280;3708;42.632;23.378;2022-10-16T12:24:04;95106.00;;;26.96;22.09
7335;BME280;3708;42.632;23.378;2022-10-16T12:26:32;95105.00;;;27.16;22.73
7335;BME280;3708;42.632;23.378;2022-10-16T12:29:14;95104.16;;;26.89;21.87
7335;BME280;3708;42.632;23.378;2022-10-16T12:31:49;95098.13;;;27.42;21.70
7335;BME280;3708;42.632;23.378;2022-10-16T12:34:22;95103.78;;;28.05;20.99
7335;BME280;3708;42.632;23.378;2022-10-16T12:36:50;95111.47;;;28.49;20.74
7335;BME280;3708;42.632;23.378;2022-10-16T12:39:21;95110.53;;;27.63;21.04
7335;BME280;3708;42.632;23.378;2022-10-16T12:42:00;95107.63;;;27.77;21.47
7335;BME280;3708;42.632;23.378;2022-10-16T12:44:32;95112.38;;;28.19;21.53
7335;BME280;3708;42.632;23.378;2022-10-16T12:46:59;95114.44;;;28.12;20.86
7335;BME280;3708;42.632;23.378;2022-10-16T12:49:36;95108.69;;;26.96;22.13
7335;BME280;3708;42.632;23.378;2022-10-16T12:52:03;95109.09;;;27.25;21.34
7335;BME280;3708;42.632;23.378;2022-10-16T12:54:34;95108.84;;;27.72;20.97
7335;BME280;3708;42.632;23.378;2022-10-16T12:57:15;95109.03;;;28.35;20.38
7335;BME280;3708;42.632;23.378;2022-10-16T12:59:55;95118.00;;;28.05;20.81
7335;BME280;3708;42.632;23.378;2022-10-16T13:02:43;95113.09;;;28.46;20.71
7335;BME280;3708;42.632;23.378;2022-10-16T13:05:26;95116.16;;;27.15;21.31
7335;BME280;3708;42.632;23.378;2022-10-16T13:08:09;95116.47;;;27.51;21.44
7335;BME280;3708;42.632;23.378;2022-10-16T13:10:50;95121.16;;;28.00;21.64
7335;BME280;3708;42.632;23.378;2022-10-16T13:13:39;95119.97;;;28.71;20.62
7335;BME280;3708;42.632;23.378;2022-10-16T13:16:18;95115.69;;;29.12;20.57
7335;BME280;3708;42.632;23.378;2022-10-16T13:18:57;95119.66;;;29.63;19.95
7335;BME280;3708;42.632;23.378;2022-10-16T13:21:35;95118.56;;;29.80;20.04
7335;BME280;3708;42.632;23.378;2022-10-16T13:24:14;95121.28;;;29.61;20.28
7335;BME280;3708;42.632;23.378;2022-10-16T13:26:51;95117.50;;;28.99;20.13
7335;BME280;3708;42.632;23.378;2022-10-16T13:29:20;95122.03;;;28.63;20.67